Home > Products > Valid Products > TAF

000
FTUS45 KSLC 181549 AAD
TAFSLC
TAF AMD
KSLC 181549Z 1816/1918 17018G28KT P6SM SCT100 BKN150
     FM181730 32012KT P6SM VCSH BKN070 BKN100
     FM190100 34007KT P6SM SCT070 BKN100
     FM190400 17005KT P6SM SCT070 BKN100=



000
FTUS45 KSLC 181548 AAC
TAFOGD
TAF AMD
KOGD 181548Z 1816/1912 27010G20KT P6SM SCT110 BKN140
     FM181700 29011KT P6SM VCSH SCT070 BKN100
     FM190200 31007KT P6SM SCT070 BKN100=



000
FTUS45 KSLC 181455 AAC
TAFSLC
TAF AMD
KSLC 181455Z 1815/1918 17018G28KT P6SM SCT100 BKN150
     FM181800 32012KT P6SM VCSH BKN070 BKN100
     FM190100 34007KT P6SM SCT070 BKN100
     FM190400 17005KT P6SM SCT070 BKN100=



000
FTUS45 KSLC 181453 AAB
TAFOGD
TAF AMD
KOGD 181453Z 1815/1912 19012G20KT P6SM BKN120
     FM181700 29011KT P6SM VCSH SCT070 BKN100
     FM190200 31007KT P6SM SCT070 BKN100=



000
FTUS45 KSLC 181328 AAA
TAFSLC
TAF AMD
KSLC 181328Z 1813/1918 17018G28KT P6SM SCT100 BKN150
     FM181600 32012KT P6SM VCSH BKN070 BKN100
     FM190100 34007KT P6SM SCT070 BKN100
     FM190400 17005KT P6SM SCT070 BKN100=



000
FTUS45 KSLC 181328 AAA
TAFOGD
TAF AMD
KOGD 181328Z 1813/1912 19012G20KT P6SM BKN120
     FM181500 29011KT P6SM VCSH SCT070 BKN100
     FM190200 31007KT P6SM SCT070 BKN100=



000
FTUS45 KSLC 181120
TAFBCE
TAF
KBCE 181120Z 1812/1912 27009KT P6SM SKC
     FM181800 16014G22KT P6SM SCT100
     FM190200 22010KT P6SM SCT100=



000
FTUS45 KSLC 181120
TAFSLC
TAF
KSLC 181120Z 1812/1918 17018G28KT P6SM SCT100 BKN150
     FM181400 32012KT P6SM VCSH BKN070 BKN100
     FM190100 34007KT P6SM SCT070 BKN100
     FM190400 17005KT P6SM SCT070 BKN100=



000
FTUS45 KSLC 181120
TAFENV
TAF
KENV 181120Z 1812/1912 31019KT P6SM SCT060 BKN100
     FM181800 35012KT P6SM SCT060 BKN100
      AMD LTD TO CLD VIS AND WIND=



000
FTUS45 KSLC 181120
TAFPVU
TAF
KPVU 181120Z 1812/1912 15010KT P6SM SCT100 BKN150
     FM181600 33015G25KT P6SM VCSH SCT070 BKN100
     FM190100 33012KT P6SM SCT070 BKN100
      AMD LTD TO CLD VIS AND WIND=



000
FTUS45 KSLC 181120
TAFOGD
TAF
KOGD 181120Z 1812/1912 17012G20KT P6SM BKN120
     FM181300 29011KT P6SM VCSH SCT070 BKN100
     FM190200 31007KT P6SM SCT070 BKN100=



000
FTUS45 KSLC 181120
TAFCDC
TAF
KCDC 181120Z 1812/1912 19009KT P6SM BKN180
     FM181600 21015G25KT P6SM SCT100 BKN120
     FM190300 19006KT P6SM SCT100 BKN120=



000
FTUS45 KSLC 181120
TAFSGU
TAF
KSGU 181120Z 1812/1912 VRB05KT P6SM SKC
     FM182000 22014G22KT P6SM SKC
     FM190100 22009KT P6SM SCT120
     FM190500 VRB05KT P6SM SCT120
      AMD LTD TO CLD VIS AND WIND=



000
FTUS45 KSLC 181120
TAFLGU
TAF
KLGU 181120Z 1812/1912 35007KT P6SM VCSH BKN070 BKN100
     FM190300 VRB05KT P6SM SCT070 BKN100=



000
FTUS45 KSLC 180905 AAB
TAFSLC
TAF AMD
KSLC 180905Z 1809/1912 17018G28KT P6SM SCT100 BKN150
     FM181700 32012G20KT P6SM VCSH BKN070 BKN100
     FM190100 34007KT P6SM SCT070 BKN100
     FM190400 17005KT P6SM SCT070 BKN100=



000
FTUS45 KSLC 180905 AAA
TAFOGD
TAF AMD
KOGD 180905Z 1809/1906 17012G20KT P6SM BKN120
     FM181700 29011KT P6SM VCSH SCT070 BKN100
     FM190200 31007KT P6SM SCT070 BKN100=



000
FTUS45 KSLC 180700 AAA
TAFSLC
TAF AMD
KSLC 180700Z 1807/1912 17018G28KT P6SM SCT100 BKN150
     FM181700 32012G20KT P6SM VCSH BKN070 BKN100
     FM190100 34007KT P6SM SCT070 BKN100
     FM190400 17005KT P6SM SCT070 BKN100=



000
FTUS45 KSLC 180533
TAFOGD
TAF
KOGD 180533Z 1806/1906 17011KT P6SM SKC
     FM181200 17012G20KT P6SM BKN120
     FM181700 29011KT P6SM VCSH SCT070 BKN100
     FM190200 31007KT P6SM SCT070 BKN100=



000
FTUS45 KSLC 180533
TAFENV
TAF
KENV 180533Z 1806/1906 05009KT P6SM BKN120
     FM180900 34010KT P6SM SCT060 BKN100
      AMD LTD TO CLD VIS AND WIND=



000
FTUS45 KSLC 180533
TAFBCE
TAF
KBCE 180533Z 1806/1906 27009KT P6SM SKC
     FM181800 16014G22KT P6SM SCT100=



000
FTUS45 KSLC 180533
TAFSLC
TAF
KSLC 180533Z 1806/1912 15015KT P6SM BKN200
     FM181400 17015G25KT P6SM SCT100 BKN150
     FM181700 32012G20KT P6SM VCSH BKN070 BKN100
     FM190100 34007KT P6SM SCT070 BKN100
     FM190400 17005KT P6SM SCT070 BKN100=



000
FTUS45 KSLC 180533
TAFPVU
TAF
KPVU 180533Z 1806/1906 13009KT P6SM SKC
     FM181600 15010KT P6SM SCT100 BKN150
     FM181900 33015G25KT P6SM VCSH SCT070 BKN100
     FM190100 33012KT P6SM SCT070 BKN100
      AMD LTD TO CLD VIS AND WIND=



000
FTUS45 KSLC 180533
TAFLGU
TAF
KLGU 180533Z 1806/1906 18005KT P6SM FEW100 BKN120
     FM181500 32010KT P6SM VCSH BKN070 BKN100
     FM190300 VRB05KT P6SM SCT070 BKN100=



000
FTUS45 KSLC 180533
TAFCDC
TAF
KCDC 180533Z 1806/1906 19009KT P6SM BKN180
     FM181600 21015G25KT P6SM SCT100 BKN120
     FM190300 19006KT P6SM SCT100 BKN120=



000
FTUS45 KSLC 180533
TAFSGU
TAF
KSGU 180533Z 1806/1906 14007KT P6SM SKC
     FM181000 VRB05KT P6SM SKC
     FM182000 22014G22KT P6SM SKC
     FM190100 22009KT P6SM SCT120
     FM190500 VRB05KT P6SM SCT120
      AMD LTD TO CLD VIS AND WIND=



000
FTUS45 KSLC 180242 AAA
TAFCDC
TAF AMD
KCDC 180242Z 1803/1824 20010KT P6SM BKN180
     FM181600 21015G25KT P6SM BKN140=



000
FTUS45 KSLC 180241 AAB
TAFSLC
TAF AMD
KSLC 180241Z 1803/1906 16011KT P6SM BKN200
     FM181500 17012KT P6SM SCT100 BKN150
     FM182100 32012G20KT P6SM BKN070=



000
FTUS45 KSLC 180150 AAA
TAFOGD
TAF AMD
KOGD 180150Z 1802/1824 19011KT P6SM SKC
     FM181200 17012G20KT P6SM BKN120
     FM182100 29011KT P6SM SCT070 BKN100=



000
FTUS45 KSLC 172336
TAFSLC
TAF
KSLC 172336Z 1800/1906 17012G20KT P6SM SKC
     FM180200 17010KT P6SM FEW150
     FM181500 17012KT P6SM SCT100 BKN150
     FM182100 32012G20KT P6SM BKN070=



000
FTUS45 KSLC 172336
TAFBCE
TAF
KBCE 172336Z 1800/1824 14010KT P6SM SCT100
     FM180300 27009KT P6SM SKC
     FM181800 16014G22KT P6SM SCT100=



000
FTUS45 KSLC 172336
TAFLGU
TAF
KLGU 172336Z 1800/1824 18005KT P6SM FEW100
     FM181500 32010KT P6SM VCSH BKN070=



000
FTUS45 KSLC 172336
TAFENV
TAF
KENV 172336Z 1800/1824 15010KT P6SM FEW100
     FM180300 VRB05KT P6SM BKN120
     FM180900 34010KT P6SM VCSH SCT060 BKN100
      AMD LTD TO CLD VIS AND WIND=



000
FTUS45 KSLC 172336
TAFOGD
TAF
KOGD 172336Z 1800/1824 19012G20KT P6SM SKC
     FM181200 17012G20KT P6SM BKN120
     FM182100 29011KT P6SM SCT070 BKN100=



000
FTUS45 KSLC 172336
TAFPVU
TAF
KPVU 172336Z 1800/1824 VRB05KT P6SM SKC
     FM181600 15010KT P6SM SCT100 BKN150
      AMD LTD TO CLD VIS AND WIND=



000
FTUS45 KSLC 172336
TAFSGU
TAF
KSGU 172336Z 1800/1824 28011KT P6SM SKC
     FM180300 VRB05KT P6SM SKC
     FM182000 22014G22KT P6SM SKC
      AMD LTD TO CLD VIS AND WIND=



000
FTUS45 KSLC 172336
TAFCDC
TAF
KCDC 172336Z 1800/1824 23012G20KT P6SM SKC
     FM180300 VRB05KT P6SM SKC
     FM180600 17010KT P6SM SKC=



000
FTUS45 KSLC 172154 AAA
TAFOGD
TAF AMD
KOGD 172154Z 1722/1818 19012G20KT P6SM SKC
     FM180300 18008KT P6SM FEW100
     FM181200 17010KT P6SM BKN120=



000
FTUS45 KSLC 172153 AAA
TAFLGU
TAF AMD
KLGU 172153Z 1722/1818 22012KT P6SM FEW100
     FM180600 18005KT P6SM BKN100
     FM181500 32010KT P6SM BKN070=



000
FTUS45 KSLC 172130 AAA
TAFSGU
TAF AMD
KSGU 172130Z 1722/1818 VRB04KT P6SM SCT250
     FM172230 23012G20KT P6SM SKC
     FM180100 23010KT P6SM SKC
     FM180300 VRB05KT P6SM SKC
      AMD LTD TO CLD VIS AND WIND=



000
FTUS45 KSLC 172129 AAB
TAFCDC
TAF AMD
KCDC 172129Z 1721/1818 23010G20KT P6SM SKC
     FM180300 VRB05KT P6SM SKC
     FM180600 17010KT P6SM SKC=



000
FTUS45 KSLC 172124 AAC
TAFSLC
TAF AMD
KSLC 172124Z 1721/1824 17012G20KT P6SM SKC
     FM180000 32005KT P6SM SKC
     FM180200 17005KT P6SM BKN150
     FM181500 17012KT P6SM BKN100
     FM182100 32012G20KT P6SM BKN070=



000
FTUS45 KSLC 172027 AAB
TAFSLC
TAF AMD
KSLC 172027Z 1720/1824 17012G20KT P6SM SKC
     FM172200 32005KT P6SM SKC
     FM180200 17005KT P6SM BKN150
     FM181500 17012KT P6SM BKN100
     FM182100 32012G20KT P6SM BKN070=



000
FTUS45 KSLC 171732 AAA
TAFENV
TAF AMD
KENV 171732Z 1718/1818 15010KT P6SM FEW100
     FM180300 VRB05KT P6SM BKN120
     FM180900 34010KT P6SM BKN100
      AMD LTD TO CLD VIS AND WIND=



000
FTUS45 KSLC 171732 AAA
TAFBCE
TAF AMD
KBCE 171732Z 1718/1818 14010KT P6SM SCT100
     FM172100 22009KT P6SM SCT100=



000
FTUS45 KSLC 171732 AAA
TAFCDC
TAF AMD
KCDC 171732Z 1718/1818 VRB05KT P6SM SKC
     FM171900 21010KT P6SM SKC
     FM180300 VRB05KT P6SM SKC
     FM180600 17010KT P6SM SKC=



000
FTUS45 KSLC 171724
TAFLGU
TAF
KLGU 171724Z 1718/1818 VRB05KT P6SM FEW100
     FM180600 18005KT P6SM BKN100
     FM181500 32010KT P6SM BKN070=



000
FTUS45 KSLC 171724
TAFENV
TAF
KENV 171724Z 1718/1818 VRB05KT P6SM SKC
     FM171800 15010KT P6SM FEW100
     FM180300 VRB05KT P6SM BKN120
     FM180900 34010KT P6SM BKN100
      AMD LTD TO CLD VIS AND WIND=



000
FTUS45 KSLC 171724
TAFPVU
TAF
KPVU 171724Z 1718/1818 VRB05KT P6SM SKC
     FM180600 15010KT P6SM BKN100
      AMD LTD TO CLD VIS AND WIND=



000
FTUS45 KSLC 171724
TAFOGD
TAF
KOGD 171724Z 1718/1818 22012G20KT P6SM SKC
     FM180300 18008KT P6SM FEW100
     FM181200 17010KT P6SM BKN120=



000
FTUS45 KSLC 171724
TAFSLC
TAF
KSLC 171724Z 1718/1824 17007KT P6SM SKC
     FM172100 32005KT P6SM SKC
     FM180200 17005KT P6SM BKN150
     FM181500 17012KT P6SM BKN100
     FM182100 32012G20KT P6SM BKN070=



000
FTUS45 KSLC 171724
TAFSGU
TAF
KSGU 171724Z 1718/1818 VRB04KT P6SM SCT250
     FM172100 23012G20KT P6SM SKC
     FM180100 23010KT P6SM SKC
     FM180300 VRB05KT P6SM SKC
      AMD LTD TO CLD VIS AND WIND=



000
FTUS45 KSLC 171724
TAFBCE
TAF
KBCE 171724Z 1718/1818 28007KT P6SM SCT120
     FM171800 14010KT P6SM SCT100
     FM172100 22009KT P6SM SCT100=



000
FTUS45 KSLC 171724
TAFCDC
TAF
KCDC 171724Z 1718/1818 VRB05KT P6SM SKC
     FM171800 21010KT P6SM SKC
     FM180300 VRB05KT P6SM SKC
     FM180600 17010KT P6SM SKC=



000
FTUS45 KSLC 171402 AAA
TAFSLC
TAF AMD
KSLC 171402Z 1714/1818 17007KT P6SM SCT250
     FM172100 32005KT P6SM SCT100
     FM180200 17005KT P6SM SKC=



000
FTUS45 KSLC 171120
TAFENV
TAF
KENV 171120Z 1712/1812 VRB05KT P6SM SKC
     FM171800 15010KT P6SM FEW100
     FM180300 VRB05KT P6SM FEW100
      AMD LTD TO CLD VIS AND WIND=



000
FTUS45 KSLC 171120
TAFBCE
TAF
KBCE 171120Z 1712/1812 28007KT P6SM SCT120
     FM171800 14010KT P6SM SCT100
     FM172100 22009KT P6SM SCT100=



000
FTUS45 KSLC 171120
TAFLGU
TAF
KLGU 171120Z 1712/1812 VRB05KT P6SM FEW100=



000
FTUS45 KSLC 171120
TAFCDC
TAF
KCDC 171120Z 1712/1812 VRB05KT P6SM SKC
     FM171800 21010KT P6SM SKC
     FM180300 VRB05KT P6SM SKC=



000
FTUS45 KSLC 171120
TAFOGD
TAF
KOGD 171120Z 1712/1812 18008KT P6SM FEW100=



000
FTUS45 KSLC 171120
TAFSLC
TAF
KSLC 171120Z 1712/1818 17007KT P6SM SCT250
     FM172100 32005KT P6SM SCT100
     FM180200 17005KT P6SM SKC=



000
FTUS45 KSLC 171120
TAFPVU
TAF
KPVU 171120Z 1712/1812 VRB05KT P6SM SCT100
      AMD LTD TO CLD VIS AND WIND=



000
FTUS45 KSLC 171120
TAFSGU
TAF
KSGU 171120Z 1712/1812 VRB04KT P6SM SCT250
     FM172100 23012G20KT P6SM SKC
     FM180100 23010KT P6SM SKC
     FM180300 VRB05KT P6SM SKC
      AMD LTD TO CLD VIS AND WIND=



000
FTUS45 KSLC 170905 AAA
TAFSLC
TAF AMD
KSLC 170905Z 1709/1812 17007KT P6SM SCT250
     FM172100 32005KT P6SM SCT100
     FM180200 17005KT P6SM SKC=



000
FTUS45 KSLC 170523
TAFLGU
TAF
KLGU 170523Z 1706/1806 VRB05KT P6SM FEW100=



000
FTUS45 KSLC 170523
TAFBCE
TAF
KBCE 170523Z 1706/1806 30005KT P6SM SCT120
     FM171800 14010KT P6SM SCT100
     FM172100 22009KT P6SM SCT100=



000
FTUS45 KSLC 170523
TAFPVU
TAF
KPVU 170523Z 1706/1806 VRB05KT P6SM SCT100
      AMD LTD TO CLD VIS AND WIND=



000
FTUS45 KSLC 170523
TAFCDC
TAF
KCDC 170523Z 1706/1806 VRB05KT P6SM SKC
     FM171800 21010KT P6SM SKC
     FM180300 VRB05KT P6SM SKC=



000
FTUS45 KSLC 170523
TAFOGD
TAF
KOGD 170523Z 1706/1806 18008KT P6SM FEW100=



000
FTUS45 KSLC 170523
TAFSGU
TAF
KSGU 170523Z 1706/1806 05015G25KT P6SM SCT250
     FM171000 VRB04KT P6SM SCT250
     FM172100 23012G20KT P6SM SKC
     FM180100 23010KT P6SM SKC
     FM180300 VRB05KT P6SM SKC
      AMD LTD TO CLD VIS AND WIND=



000
FTUS45 KSLC 170523
TAFENV
TAF
KENV 170523Z 1706/1806 VRB05KT P6SM SKC
     FM171800 15010KT P6SM FEW100
     FM180300 VRB05KT P6SM FEW100
      AMD LTD TO CLD VIS AND WIND=



000
FTUS45 KSLC 170523
TAFSLC
TAF
KSLC 170523Z 1706/1812 17007KT P6SM SCT250
     FM172100 32005KT P6SM SCT100
     FM180200 17005KT P6SM SKC=



000
FTUS45 KSLC 170445 AAB
TAFSGU
TAF AMD
KSGU 170445Z 1705/1724 05015G25KT P6SM SCT250
     FM171000 VRB04KT P6SM SCT250
     FM172100 23012G20KT P6SM SKC
      AMD LTD TO CLD VIS AND WIND=



000
FTUS45 KSLC 170254 AAA
TAFSGU
TAF AMD
KSGU 170254Z 1703/1724 05011KT P6SM SCT250
     FM171000 VRB04KT P6SM SCT250
     FM172100 23012G20KT P6SM SKC
      AMD LTD TO CLD VIS AND WIND=



000
FTUS45 KSLC 170252 AAB
TAFSLC
TAF AMD
KSLC 170252Z 1703/1806 17007KT P6SM SCT250
     FM172100 32004KT P6SM SCT100
     FM180200 17005KT P6SM SKC=



000
FTUS45 KSLC 162320
TAFLGU
TAF
KLGU 162320Z 1700/1724 22007KT P6SM SCT100
     FM170300 VRB05KT P6SM SKC
     FM172000 20008KT P6SM SCT100=



000
FTUS45 KSLC 162320
TAFOGD
TAF
KOGD 162320Z 1700/1724 31006KT P6SM SCT100
     FM170300 18008KT P6SM FEW100=



000
FTUS45 KSLC 162320
TAFSLC
TAF
KSLC 162320Z 1700/1806 30010KT P6SM SCT120
     FM170300 17007KT P6SM SKC
     FM172100 32004KT P6SM SCT100
     FM180200 17005KT P6SM SKC=



000
FTUS45 KSLC 162320
TAFBCE
TAF
KBCE 162320Z 1700/1724 32012G20KT P6SM SCT070 BKN120
     FM170300 30005KT P6SM SCT120
     FM171800 19010KT P6SM SCT100=



000
FTUS45 KSLC 162320
TAFENV
TAF
KENV 162320Z 1700/1724 10008KT P6SM SKC
     FM170300 VRB05KT P6SM SKC
     FM171800 15010KT P6SM FEW100
      AMD LTD TO CLD VIS AND WIND=



000
FTUS45 KSLC 162320
TAFPVU
TAF
KPVU 162320Z 1700/1724 31010KT P6SM SCT100 BKN200
     FM170300 VRB03KT P6SM SKC
     FM172100 20008KT P6SM SCT100
      AMD LTD TO CLD VIS AND WIND=



000
FTUS45 KSLC 162320
TAFCDC
TAF
KCDC 162320Z 1700/1724 VRB05KT P6SM SKC
     FM171800 21010KT P6SM SKC=



000
FTUS45 KSLC 162320
TAFSGU
TAF
KSGU 162320Z 1700/1724 33010KT P6SM SKC
     FM170300 VRB04KT P6SM SKC
     FM172100 23012G20KT P6SM SKC
      AMD LTD TO CLD VIS AND WIND=



000
FTUS45 KSLC 162125 AAA
TAFBCE
TAF AMD
KBCE 162125Z 1621/1718 30012G20KT P6SM SCT120
     FM170300 30005KT P6SM SKC=



000
FTUS45 KSLC 162102 AAA
TAFSLC
TAF AMD
KSLC 162102Z 1621/1724 30010KT P6SM SCT120
     FM170300 17005KT P6SM SKC
     FM171500 17005KT P6SM SKC
     FM172100 32004KT P6SM SKC=



000
FTUS45 KSLC 161737
TAFSLC
TAF
KSLC 161737Z 1618/1724 34009KT P6SM SCT100 BKN200
     FM170300 17005KT P6SM SCT100 BKN200
     FM171500 17005KT P6SM SCT200
     FM172100 32004KT P6SM SKC=



000
FTUS45 KSLC 161737
TAFCDC
TAF
KCDC 161737Z 1618/1718 01007KT P6SM BKN120
     FM162100 36010KT P6SM SCT120
     FM170300 VRB05KT P6SM SKC=



000
FTUS45 KSLC 161737
TAFBCE
TAF
KBCE 161737Z 1618/1718 26005KT P6SM FEW120
     FM161800 31012KT P6SM SCT120
     FM170300 30005KT P6SM SKC=



000
FTUS45 KSLC 161737
TAFSGU
TAF
KSGU 161737Z 1618/1718 VRB05KT P6SM FEW150
      AMD LTD TO CLD VIS AND WIND=



000
FTUS45 KSLC 161737
TAFLGU
TAF
KLGU 161737Z 1618/1718 VRB05KT P6SM SCT100 BKN200
     FM170300 VRB05KT P6SM SCT200=



000
FTUS45 KSLC 161737
TAFENV
TAF
KENV 161737Z 1618/1718 10007KT P6SM SCT100
     FM161900 04003KT P6SM SCT200
     FM170300 VRB05KT P6SM SKC
      AMD LTD TO CLD VIS AND WIND=



000
FTUS45 KSLC 161737
TAFPVU
TAF
KPVU 161737Z 1618/1718 31010KT P6SM SCT100 BKN200
     FM170300 VRB03KT P6SM SCT200
      AMD LTD TO CLD VIS AND WIND=



000
FTUS45 KSLC 161737
TAFOGD
TAF
KOGD 161737Z 1618/1718 29007KT P6SM SCT100 BKN200
     FM170300 18006KT P6SM SCT100 BKN200
     FM171500 18005KT P6SM SKC=



000
FTUS45 KSLC 161513 AAA
TAFBCE
TAF AMD
KBCE 161513Z 1615/1712 26005KT P6SM FEW120
     FM161800 31012KT P6SM SCT120=



000
FTUS45 KSLC 161420 AAA
TAFSLC
TAF AMD
KSLC 161420Z 1614/1718 35005KT P6SM SCT100 BKN200
     FM161700 34009KT P6SM SCT100 BKN200
     FM170300 17005KT P6SM SCT100 BKN200=



000
FTUS45 KSLC 161120
TAFLGU
TAF
KLGU 161120Z 1612/1712 VRB05KT P6SM SCT100 BKN200=



000
FTUS45 KSLC 161120
TAFOGD
TAF
KOGD 161120Z 1612/1712 17005KT P6SM SCT100
     FM161600 29007KT P6SM SCT100 BKN200
     FM170300 18006KT P6SM SCT100 BKN200=



000
FTUS45 KSLC 161120
TAFPVU
TAF
KPVU 161120Z 1612/1712 31010KT P6SM SCT100 BKN200
      AMD LTD TO CLD VIS AND WIND=



000
FTUS45 KSLC 161120
TAFSLC
TAF
KSLC 161120Z 1612/1718 29005KT P6SM SCT100 BKN200
     FM161500 34009KT P6SM SCT100 BKN200
     FM170300 17005KT P6SM SCT100 BKN200=



000
FTUS45 KSLC 161120
TAFSGU
TAF
KSGU 161120Z 1612/1712 VRB05KT P6SM FEW150
      AMD LTD TO CLD VIS AND WIND=



000
FTUS45 KSLC 161120
TAFENV
TAF
KENV 161120Z 1612/1712 02009KT P6SM SCT100
     FM170300 VRB05KT P6SM SCT100 BKN200
      AMD LTD TO CLD VIS AND WIND=



000
FTUS45 KSLC 161120
TAFCDC
TAF
KCDC 161120Z 1612/1712 VRB05KT P6SM FEW150
     FM161500 01007KT P6SM BKN120
     FM170300 VRB05KT P6SM BKN200=



000
FTUS45 KSLC 161120
TAFBCE
TAF
KBCE 161120Z 1612/1712 26005KT P6SM FEW120
     FM161500 31012KT P6SM SCT120=



000
FTUS45 KSLC 160905 AAA
TAFSLC
TAF AMD
KSLC 160905Z 1609/1712 35010KT P6SM BKN100
     FM161000 14005KT P6SM SCT110
     FM161500 34009KT P6SM SCT110=



000
FTUS45 KSLC 160537
TAFSLC
TAF
KSLC 160537Z 1606/1712 35010KT P6SM BKN100
     FM161000 14005KT P6SM SCT110
     FM161500 34009KT P6SM SCT110=



000
FTUS45 KSLC 160537
TAFOGD
TAF
KOGD 160537Z 1606/1706 33010KT P6SM SCT100 BKN160
     FM161100 17005KT P6SM SCT110=



000
FTUS45 KSLC 160537
TAFSGU
TAF
KSGU 160537Z 1606/1706 12004KT P6SM FEW150
     FM161500 33005KT P6SM BKN150
      AMD LTD TO CLD VIS AND WIND=



000
FTUS45 KSLC 160537
TAFBCE
TAF
KBCE 160537Z 1606/1706 26006KT P6SM FEW120
     FM161500 03012KT P6SM SCT120=



000
FTUS45 KSLC 160537
TAFENV
TAF
KENV 160537Z 1606/1706 01011KT P6SM BKN180
     FM161000 VRB05KT P6SM SCT100
      AMD LTD TO CLD VIS AND WIND=



000
FTUS45 KSLC 160537
TAFPVU
TAF
KPVU 160537Z 1606/1706 34011KT P6SM BKN110
     FM160900 VRB05KT P6SM SCT110
      AMD LTD TO CLD VIS AND WIND=



000
FTUS45 KSLC 160537
TAFCDC
TAF
KCDC 160537Z 1606/1706 19010KT P6SM FEW150
     FM161500 33010KT P6SM BKN120=



000
FTUS45 KSLC 160537
TAFLGU
TAF
KLGU 160537Z 1606/1706 30010KT P6SM SCT090 BKN160
     FM160900 VRB05KT P6SM SCT090=



000
FTUS45 KSLC 160307 AAB
TAFENV
TAF AMD
KENV 160307Z 1603/1624 33010G17KT P6SM BKN180
     FM160400 01011KT P6SM BKN180
     FM161000 VRB05KT P6SM SCT100
      AMD LTD TO CLD VIS AND WIND=



000
FTUS45 KSLC 160306 AAD
TAFSLC
TAF AMD
KSLC 160306Z 1603/1706 35010KT P6SM BKN100
     FM161000 14005KT P6SM SCT110
     FM161500 34009KT P6SM SCT110=



000
FTUS45 KSLC 160240 AAC
TAFSLC
TAF AMD
KSLC 160240Z 1603/1706 35013G23KT P6SM BKN100
     FM160500 01012KT P6SM BKN110
     FM161000 14005KT P6SM SCT110
     FM161500 34009KT P6SM SCT110=



000
FTUS45 KSLC 160213 AAA
TAFENV
TAF AMD
KENV 160213Z 1602/1624 30018G29KT P6SM BKN180
     FM160400 01011KT P6SM BKN180
     FM161000 VRB05KT P6SM SCT100
      AMD LTD TO CLD VIS AND WIND=



000
FTUS45 KSLC 160103 AAB
TAFCDC
TAF AMD
KCDC 160103Z 1601/1624 21011G16KT P6SM FEW150
     FM160200 19010KT P6SM FEW150
     FM161500 33010KT P6SM BKN120=



000
FTUS45 KSLC 160103 AAA
TAFPVU
TAF AMD
KPVU 160103Z 1601/1624 29009KT P6SM BKN110 BKN200
     FM160200 33018G28KT P6SM BKN110 BKN200
     FM160400 34011KT P6SM BKN110
     FM160900 VRB05KT P6SM SCT110
      AMD LTD TO CLD VIS AND WIND=



000
FTUS45 KSLC 160027 AAB
TAFSLC
TAF AMD
KSLC 160027Z 1600/1706 34018G28KT P6SM BKN110 BKN180
     FM160200 34011KT P6SM BKN110
     FM161000 14005KT P6SM SCT110
     FM161500 34009KT P6SM SCT110=



000
FTUS45 KSLC 160001 AAA
TAFOGD
TAF AMD
KOGD 160001Z 1600/1624 33016G23KT P6SM BKN110 BKN180
     FM160200 33010KT P6SM SCT100 BKN160
     FM161100 17005KT P6SM SCT110=



000
FTUS45 KSLC 160001 AAA
TAFLGU
TAF AMD
KLGU 160001Z 1600/1624 32016G22KT P6SM BKN100 BKN180
     FM160100 34010KT P6SM SCT090 BKN160
     FM160900 VRB05KT P6SM SCT090=



000
FTUS45 KSLC 160001 AAA
TAFCDC
TAF AMD
KCDC 160001Z 1600/1624 22011G16KT P6SM FEW150
     FM160100 19010KT P6SM FEW150
     FM161500 33010KT P6SM BKN120=



000
FTUS45 KSLC 152322
TAFLGU
TAF
KLGU 152322Z 1600/1624 32015KT P6SM BKN100 BKN180
     FM160100 35007KT P6SM SCT090 BKN160
     FM160900 VRB05KT P6SM SCT090=



000
FTUS45 KSLC 152322
TAFCDC
TAF
KCDC 152322Z 1600/1624 23012G20KT P6SM FEW150
     FM160100 19010KT P6SM FEW150
     FM161500 33010KT P6SM BKN120=



000
FTUS45 KSLC 152322
TAFENV
TAF
KENV 152322Z 1600/1624 30018G29KT P6SM SCT090 BKN180
     FM160200 34011KT P6SM FEW090 BKN180
     FM161000 VRB05KT P6SM SCT100
      AMD LTD TO CLD VIS AND WIND=



000
FTUS45 KSLC 152322
TAFOGD
TAF
KOGD 152322Z 1600/1624 30016KT P6SM BKN110 BKN180
     FM160200 33010KT P6SM SCT100 BKN160
     FM161100 17005KT P6SM SCT110=



000
FTUS45 KSLC 152322
TAFSLC
TAF
KSLC 152322Z 1600/1706 29011KT P6SM SCT100 BKN200
     FM160015 30018G28KT P6SM BKN110 BKN180
     FM160200 34011KT P6SM BKN110
     FM161000 14005KT P6SM SCT110
     FM161500 34009KT P6SM SCT110=



000
FTUS45 KSLC 152322
TAFSGU
TAF
KSGU 152322Z 1600/1624 26011KT P6SM FEW150
     FM160200 12004KT P6SM FEW150
     FM161500 33005KT P6SM BKN150
      AMD LTD TO CLD VIS AND WIND=



000
FTUS45 KSLC 152322
TAFBCE
TAF
KBCE 152322Z 1600/1624 29011G17KT P6SM FEW120
     FM160200 26006KT P6SM FEW120
     FM161500 03012KT P6SM SCT120=



000
FTUS45 KSLC 152322
TAFPVU
TAF
KPVU 152322Z 1600/1624 28009KT P6SM SCT120 BKN200
     FM160100 33018G28KT P6SM BKN110 BKN200
     FM160300 34014KT P6SM BKN110
     FM160900 VRB05KT P6SM SCT110
      AMD LTD TO CLD VIS AND WIND=



000
FTUS45 KSLC 152231 AAE
TAFLGU
TAF AMD
KLGU 152231Z 1523/1618 33018G28KT P6SM BKN100 BKN160
     FM160100 35007KT P6SM SCT090 BKN160
     FM160900 VRB05KT P6SM SCT090=



000
FTUS45 KSLC 152117 AAD
TAFLGU
TAF AMD
KLGU 152117Z 1521/1618 22010G20KT P6SM SCT150
     FM152300 30015G25KT P6SM SCT060 BKN120
     FM160100 35007KT P6SM SCT060 BKN120
     FM160900 VRB05KT P6SM BKN120=



000
FTUS45 KSLC 152041 AAB
TAFBCE
TAF AMD
KBCE 152041Z 1521/1618 20015G20KT P6SM FEW120
     FM160200 27010KT P6SM FEW120
     FM161500 33012KT P6SM BKN120=



000
FTUS45 KSLC 152038 AAA
TAFOGD
TAF AMD
KOGD 152038Z 1521/1618 25012G20KT P6SM SCT150
     FM160000 30012G20KT P6SM SCT060 BKN150
     FM160200 33010KT P6SM SCT060 BKN120
     FM161200 33005KT P6SM BKN150=



000
FTUS45 KSLC 152037 AAC
TAFLGU
TAF AMD
KLGU 152037Z 1521/1618 22009KT P6SM SCT150
     FM152300 30015G25KT P6SM SCT060 BKN120
     FM160100 35007KT P6SM SCT060 BKN120
     FM160900 VRB05KT P6SM BKN120=



000
FTUS45 KSLC 152036 AAB
TAFENV
TAF AMD
KENV 152036Z 1521/1618 19007KT P6SM SCT150
     FM152130 29020G30KT P6SM SCT060 BKN150
     FM160300 34018KT P6SM SCT060 BKN150
     FM161500 30010KT P6SM BKN120
      AMD LTD TO CLD VIS AND WIND=



000
FTUS45 KSLC 152032 CCA
TAFSLC
TAF COR
KSLC 152032Z 1521/1624 18007KT P6SM SCT060 BKN150
     FM152100 29007KT P6SM BKN150
     FM160000 30018G28KT P6SM SCT060 BKN120
     FM160200 33012KT P6SM BKN150
     FM161000 33004KT P6SM BKN120=



000
FTUS45 KSLC 152030 AAC
TAFSLC
TAF AMD
KSLC 152030Z 1521/1624 18007KT P6SM SCT060 BKN150
     FM152100 27007KT P6SM BKN150
     FM160000 28018G28KT P6SM SCT060 BKN120
     FM160200 33012KT P6SM BKN150
     FM161000 33004KT P6SM BKN120=



000
FTUS45 KSLC 151901 AAB
TAFLGU
TAF AMD
KLGU 151901Z 1519/1618 22012KT P6SM SCT150
     FM152000 29015G25KT P6SM SCT060 BKN120
     FM160100 35007KT P6SM SCT060 BKN120
     FM160900 VRB05KT P6SM BKN120=



000
FTUS45 KSLC 151900 AAA
TAFCDC
TAF AMD
KCDC 151900Z 1519/1618 22010KT P6SM SKC
     FM152000 23012G20KT P6SM FEW150
     FM160300 19005KT P6SM FEW150
     FM161500 33010KT P6SM BKN120=



000
FTUS45 KSLC 151900 AAA
TAFBCE
TAF AMD
KBCE 151900Z 1519/1618 20010KT P6SM SKC
     FM152000 28015G25KT P6SM FEW120
     FM160200 27010KT P6SM FEW120
     FM161500 33012KT P6SM BKN120=



000
FTUS45 KSLC 151858 AAA
TAFENV
TAF AMD
KENV 151858Z 1519/1618 29007KT P6SM SCT150
     FM151930 29020G30KT P6SM SCT060 BKN150
     FM160300 34018KT P6SM SCT060 BKN150
     FM161500 30010KT P6SM BKN120
      AMD LTD TO CLD VIS AND WIND=



000
FTUS45 KSLC 151858 AAA
TAFLGU
TAF AMD
KLGU 151858Z 1519/1618 22012KT P6SM SCT150
     FM151900 29015G25KT P6SM SCT060 BKN120
     FM160100 35007KT P6SM SCT060 BKN120
     FM160900 VRB05KT P6SM BKN120=



000
FTUS45 KSLC 151738
TAFLGU
TAF
KLGU 151738Z 1518/1618 VRB05KT P6SM SCT150
     FM151900 29015G25KT P6SM SCT060 BKN120
     FM160100 35007KT P6SM SCT060 BKN120
     FM160900 VRB05KT P6SM BKN120=



000
FTUS45 KSLC 151738
TAFCDC
TAF
KCDC 151738Z 1518/1618 22010KT P6SM SKC
     FM151900 23012G20KT P6SM FEW150
     FM160300 19005KT P6SM FEW150
     FM161500 33010KT P6SM BKN120=



000
FTUS45 KSLC 151738
TAFOGD
TAF
KOGD 151738Z 1518/1618 20012G20KT P6SM SCT150
     FM152100 25012G20KT P6SM SCT060 BKN150
     FM160200 33010KT P6SM SCT060 BKN120
     FM161200 33005KT P6SM BKN150=



000
FTUS45 KSLC 151738
TAFPVU
TAF
KPVU 151738Z 1518/1618 14008KT P6SM SCT060 SCT150
     FM152200 33018G28KT P6SM SCT060 BKN150
     FM160200 33015KT P6SM SCT060 BKN150
     FM160900 33004KT P6SM BKN150
      AMD LTD TO CLD VIS AND WIND=



000
FTUS45 KSLC 151738
TAFSLC
TAF
KSLC 151738Z 1518/1624 15012G20KT P6SM FEW150
     FM151800 18015G24KT P6SM SCT060 BKN150
     FM152100 28018G28KT P6SM SCT060 BKN120
     FM160200 33012KT P6SM BKN150
     FM161000 33004KT P6SM BKN120=



000
FTUS45 KSLC 151738
TAFENV
TAF
KENV 151738Z 1518/1618 29007KT P6SM SCT150
     FM151830 29020G30KT P6SM SCT060 BKN150
     FM160300 34018KT P6SM SCT060 BKN150
     FM161500 30010KT P6SM BKN120
      AMD LTD TO CLD VIS AND WIND=



000
FTUS45 KSLC 151738
TAFBCE
TAF
KBCE 151738Z 1518/1618 20010KT P6SM SKC
     FM151900 28015G25KT P6SM FEW120
     FM160200 27010KT P6SM FEW120
     FM161500 33012KT P6SM BKN120=



000
FTUS45 KSLC 151738
TAFSGU
TAF
KSGU 151738Z 1518/1618 11009KT P6SM SKC
     FM152100 24012G20KT P6SM FEW150
     FM160200 15004KT P6SM FEW150
     FM161500 33005KT P6SM BKN150
      AMD LTD TO CLD VIS AND WIND=



000
FTUS45 KSLC 151712 AAB
TAFSLC
TAF AMD
KSLC 151712Z 1517/1618 15012G20KT P6SM FEW150
     FM151800 18015G24KT P6SM SCT060 BKN150
     FM152100 30018G28KT P6SM SCT060 BKN120
     FM160200 33008KT P6SM BKN150=



    US Dept of Commerce
    National Oceanic and Atmospheric Administration
    National Weather Service
    1325 East West Highway
    Silver Spring, MD 20910
    Page Author: NWS Internet Services Team
Disclaimer
Information Quality
Credits
Glossary
Privacy Policy
Freedom of Information Act (FOIA)
About Us
Career Opportunities